sensor_id;sensor_type;location;lat;lon;timestamp;P1;durP1;ratioP1;P2;durP2;ratioP2
71395;SDS011;59888;55.814;37.132;2023-08-01T00:00:51;6.97;;;4.68;;
71395;SDS011;59888;55.814;37.132;2023-08-01T00:03:18;6.80;;;4.70;;
71395;SDS011;59888;55.814;37.132;2023-08-01T00:05:44;7.57;;;4.20;;
71395;SDS011;59888;55.814;37.132;2023-08-01T00:08:11;7.78;;;4.60;;
71395;SDS011;59888;55.814;37.132;2023-08-01T00:10:38;6.70;;;4.30;;
71395;SDS011;59888;55.814;37.132;2023-08-01T00:13:07;6.00;;;4.13;;
71395;SDS011;59888;55.814;37.132;2023-08-01T00:15:35;7.30;;;4.32;;
71395;SDS011;59888;55.814;37.132;2023-08-01T00:18:01;7.68;;;4.68;;
71395;SDS011;59888;55.814;37.132;2023-08-01T00:20:27;6.10;;;4.35;;
71395;SDS011;59888;55.814;37.132;2023-08-01T00:22:54;11.52;;;4.90;;
71395;SDS011;59888;55.814;37.132;2023-08-01T00:25:21;8.77;;;4.50;;
71395;SDS011;59888;55.814;37.132;2023-08-01T00:27:47;8.50;;;5.57;;
71395;SDS011;59888;55.814;37.132;2023-08-01T00:30:13;9.82;;;4.80;;
71395;SDS011;59888;55.814;37.132;2023-08-01T00:32:39;8.05;;;4.80;;
71395;SDS011;59888;55.814;37.132;2023-08-01T00:35:05;8.98;;;5.15;;
71395;SDS011;59888;55.814;37.132;2023-08-01T00:37:32;7.97;;;5.25;;
71395;SDS011;59888;55.814;37.132;2023-08-01T00:39:58;9.57;;;5.15;;
71395;SDS011;59888;55.814;37.132;2023-08-01T00:42:24;7.78;;;4.88;;
71395;SDS011;59888;55.814;37.132;2023-08-01T00:44:50;10.73;;;5.72;;
71395;SDS011;59888;55.814;37.132;2023-08-01T00:47:16;8.23;;;4.78;;
71395;SDS011;59888;55.814;37.132;2023-08-01T00:49:44;8.70;;;4.93;;
71395;SDS011;59888;55.814;37.132;2023-08-01T00:52:10;7.78;;;4.63;;
71395;SDS011;59888;55.814;37.132;2023-08-01T00:54:36;7.68;;;4.75;;
71395;SDS011;59888;55.814;37.132;2023-08-01T00:57:03;9.73;;;5.07;;
71395;SDS011;59888;55.814;37.132;2023-08-01T00:59:29;7.15;;;4.55;;
71395;SDS011;59888;55.814;37.132;2023-08-01T01:01:56;7.00;;;4.70;;
71395;SDS011;59888;55.814;37.132;2023-08-01T01:04:23;7.38;;;5.20;;
71395;SDS011;59888;55.814;37.132;2023-08-01T01:06:51;7.80;;;4.82;;
71395;SDS011;59888;55.814;37.132;2023-08-01T01:09:23;6.63;;;4.97;;
71395;SDS011;59888;55.814;37.132;2023-08-01T01:11:49;6.82;;;4.53;;
71395;SDS011;59888;55.814;37.132;2023-08-01T01:14:14;7.93;;;4.68;;
71395;SDS011;59888;55.814;37.132;2023-08-01T01:16:42;8.38;;;5.00;;
71395;SDS011;59888;55.814;37.132;2023-08-01T01:19:08;7.75;;;5.40;;
71395;SDS011;59888;55.814;37.132;2023-08-01T01:24:36;7.57;;;4.70;;
71395;SDS011;59888;55.814;37.132;2023-08-01T01:27:04;9.48;;;4.80;;
71395;SDS011;59888;55.814;37.132;2023-08-01T01:29:31;7.80;;;4.97;;
71395;SDS011;59888;55.814;37.132;2023-08-01T01:31:59;9.32;;;4.75;;
71395;SDS011;59888;55.814;37.132;2023-08-01T01:34:27;8.10;;;5.10;;
71395;SDS011;59888;55.814;37.132;2023-08-01T01:36:53;9.52;;;5.45;;
71395;SDS011;59888;55.814;37.132;2023-08-01T01:39:20;8.30;;;4.68;;
71395;SDS011;59888;55.814;37.132;2023-08-01T01:41:47;7.43;;;5.05;;
71395;SDS011;59888;55.814;37.132;2023-08-01T01:47:25;9.35;;;5.80;;
71395;SDS011;59888;55.814;37.132;2023-08-01T01:49:52;8.30;;;4.60;;
71395;SDS011;59888;55.814;37.132;2023-08-01T01:52:18;8.38;;;5.05;;
71395;SDS011;59888;55.814;37.132;2023-08-01T01:54:44;8.95;;;5.20;;
71395;SDS011;59888;55.814;37.132;2023-08-01T01:57:10;9.93;;;5.30;;
71395;SDS011;59888;55.814;37.132;2023-08-01T01:59:39;7.30;;;5.07;;
71395;SDS011;59888;55.814;37.132;2023-08-01T02:02:06;7.20;;;4.63;;
71395;SDS011;59888;55.814;37.132;2023-08-01T02:04:32;9.15;;;5.15;;
71395;SDS011;59888;55.814;37.132;2023-08-01T02:06:58;10.38;;;5.00;;
71395;SDS011;59888;55.814;37.132;2023-08-01T02:09:24;7.63;;;4.97;;
71395;SDS011;59888;55.814;37.132;2023-08-01T02:11:51;8.98;;;4.97;;
71395;SDS011;59888;55.814;37.132;2023-08-01T02:14:18;7.93;;;5.10;;
71395;SDS011;59888;55.814;37.132;2023-08-01T02:16:44;9.35;;;4.68;;
71395;SDS011;59888;55.814;37.132;2023-08-01T02:19:11;8.30;;;4.65;;
71395;SDS011;59888;55.814;37.132;2023-08-01T02:21:37;6.85;;;4.80;;
71395;SDS011;59888;55.814;37.132;2023-08-01T02:24:04;9.32;;;5.00;;
71395;SDS011;59888;55.814;37.132;2023-08-01T02:26:30;8.75;;;4.75;;
71395;SDS011;59888;55.814;37.132;2023-08-01T02:28:56;6.80;;;4.97;;
71395;SDS011;59888;55.814;37.132;2023-08-01T02:31:22;8.02;;;4.97;;
71395;SDS011;59888;55.814;37.132;2023-08-01T02:33:48;6.95;;;4.88;;
71395;SDS011;59888;55.814;37.132;2023-08-01T02:36:15;7.70;;;4.80;;
71395;SDS011;59888;55.814;37.132;2023-08-01T02:38:41;6.82;;;4.70;;
71395;SDS011;59888;55.814;37.132;2023-08-01T02:41:07;5.78;;;4.65;;
71395;SDS011;59888;55.814;37.132;2023-08-01T02:43:33;8.48;;;5.10;;
71395;SDS011;59888;55.814;37.132;2023-08-01T02:46:02;7.53;;;4.82;;
71395;SDS011;59888;55.814;37.132;2023-08-01T02:48:28;9.60;;;5.20;;
71395;SDS011;59888;55.814;37.132;2023-08-01T02:50:54;9.23;;;4.75;;
71395;SDS011;59888;55.814;37.132;2023-08-01T02:53:20;9.88;;;5.47;;
71395;SDS011;59888;55.814;37.132;2023-08-01T02:55:47;9.73;;;5.82;;
71395;SDS011;59888;55.814;37.132;2023-08-01T02:58:13;10.70;;;5.85;;
71395;SDS011;59888;55.814;37.132;2023-08-01T03:00:39;10.70;;;5.78;;
71395;SDS011;59888;55.814;37.132;2023-08-01T03:03:06;11.30;;;5.85;;
71395;SDS011;59888;55.814;37.132;2023-08-01T03:05:32;9.68;;;5.75;;
71395;SDS011;59888;55.814;37.132;2023-08-01T03:08:01;9.13;;;5.38;;
71395;SDS011;59888;55.814;37.132;2023-08-01T03:10:27;11.80;;;6.20;;
71395;SDS011;59888;55.814;37.132;2023-08-01T03:12:53;9.10;;;5.78;;
71395;SDS011;59888;55.814;37.132;2023-08-01T03:15:19;9.68;;;5.82;;
71395;SDS011;59888;55.814;37.132;2023-08-01T03:17:45;7.85;;;5.53;;
71395;SDS011;59888;55.814;37.132;2023-08-01T03:20:11;13.45;;;6.43;;
71395;SDS011;59888;55.814;37.132;2023-08-01T03:22:38;10.35;;;6.30;;
71395;SDS011;59888;55.814;37.132;2023-08-01T03:25:07;10.85;;;5.72;;
71395;SDS011;59888;55.814;37.132;2023-08-01T03:27:34;8.57;;;5.40;;
71395;SDS011;59888;55.814;37.132;2023-08-01T03:30:00;10.35;;;5.63;;
71395;SDS011;59888;55.814;37.132;2023-08-01T03:32:30;11.38;;;5.43;;
71395;SDS011;59888;55.814;37.132;2023-08-01T03:34:56;8.40;;;5.32;;
71395;SDS011;59888;55.814;37.132;2023-08-01T03:37:23;12.48;;;5.68;;
71395;SDS011;59888;55.814;37.132;2023-08-01T03:39:52;7.97;;;5.25;;
71395;SDS011;59888;55.814;37.132;2023-08-01T03:42:18;9.68;;;5.38;;
71395;SDS011;59888;55.814;37.132;2023-08-01T03:44:45;6.63;;;5.00;;
71395;SDS011;59888;55.814;37.132;2023-08-01T03:47:11;8.70;;;5.38;;
71395;SDS011;59888;55.814;37.132;2023-08-01T03:49:36;9.35;;;5.05;;
71395;SDS011;59888;55.814;37.132;2023-08-01T03:52:06;9.45;;;4.82;;
71395;SDS011;59888;55.814;37.132;2023-08-01T03:54:35;10.93;;;5.03;;
71395;SDS011;59888;55.814;37.132;2023-08-01T03:57:01;9.50;;;5.43;;
71395;SDS011;59888;55.814;37.132;2023-08-01T03:59:28;9.85;;;4.90;;
71395;SDS011;59888;55.814;37.132;2023-08-01T04:01:53;5.97;;;4.63;;
71395;SDS011;59888;55.814;37.132;2023-08-01T04:04:21;9.10;;;4.45;;
71395;SDS011;59888;55.814;37.132;2023-08-01T04:06:47;7.07;;;4.25;;
71395;SDS011;59888;55.814;37.132;2023-08-01T04:09:13;9.18;;;4.35;;
71395;SDS011;59888;55.814;37.132;2023-08-01T04:11:42;7.22;;;4.43;;
71395;SDS011;59888;55.814;37.132;2023-08-01T04:14:09;6.55;;;4.03;;
71395;SDS011;59888;55.814;37.132;2023-08-01T04:16:35;6.03;;;3.85;;
71395;SDS011;59888;55.814;37.132;2023-08-01T04:19:01;5.40;;;3.85;;
71395;SDS011;59888;55.814;37.132;2023-08-01T04:21:27;6.65;;;4.15;;
71395;SDS011;59888;55.814;37.132;2023-08-01T04:23:53;6.18;;;3.92;;
71395;SDS011;59888;55.814;37.132;2023-08-01T04:26:19;5.85;;;4.07;;
71395;SDS011;59888;55.814;37.132;2023-08-01T04:28:46;8.57;;;4.65;;
71395;SDS011;59888;55.814;37.132;2023-08-01T04:31:15;9.02;;;4.32;;
71395;SDS011;59888;55.814;37.132;2023-08-01T04:33:42;5.60;;;4.10;;
71395;SDS011;59888;55.814;37.132;2023-08-01T04:36:09;8.80;;;4.75;;
71395;SDS011;59888;55.814;37.132;2023-08-01T04:38:35;8.40;;;4.07;;
71395;SDS011;59888;55.814;37.132;2023-08-01T04:41:01;7.03;;;4.10;;
71395;SDS011;59888;55.814;37.132;2023-08-01T04:43:28;6.25;;;4.18;;
71395;SDS011;59888;55.814;37.132;2023-08-01T04:45:54;7.32;;;4.25;;
71395;SDS011;59888;55.814;37.132;2023-08-01T04:48:20;8.15;;;4.13;;
71395;SDS011;59888;55.814;37.132;2023-08-01T04:50:47;6.43;;;4.20;;
71395;SDS011;59888;55.814;37.132;2023-08-01T04:53:12;10.75;;;4.28;;
71395;SDS011;59888;55.814;37.132;2023-08-01T04:55:39;6.45;;;3.90;;
71395;SDS011;59888;55.814;37.132;2023-08-01T04:58:06;8.38;;;4.38;;
71395;SDS011;59888;55.814;37.132;2023-08-01T05:00:32;5.68;;;3.95;;
71395;SDS011;59888;55.814;37.132;2023-08-01T05:02:58;10.20;;;4.18;;
71395;SDS011;59888;55.814;37.132;2023-08-01T05:05:24;7.68;;;3.72;;
71395;SDS011;59888;55.814;37.132;2023-08-01T05:07:50;5.07;;;3.25;;
71395;SDS011;59888;55.814;37.132;2023-08-01T05:10:16;7.78;;;4.18;;
71395;SDS011;59888;55.814;37.132;2023-08-01T05:12:42;7.28;;;3.67;;
71395;SDS011;59888;55.814;37.132;2023-08-01T05:15:08;8.70;;;3.42;;
71395;SDS011;59888;55.814;37.132;2023-08-01T05:17:34;7.88;;;3.28;;
71395;SDS011;59888;55.814;37.132;2023-08-01T05:20:00;6.60;;;3.63;;
71395;SDS011;59888;55.814;37.132;2023-08-01T05:22:26;6.07;;;3.33;;
71395;SDS011;59888;55.814;37.132;2023-08-01T05:24:52;7.32;;;3.55;;
71395;SDS011;59888;55.814;37.132;2023-08-01T05:27:18;7.25;;;3.22;;
71395;SDS011;59888;55.814;37.132;2023-08-01T05:29:44;7.00;;;3.17;;
71395;SDS011;59888;55.814;37.132;2023-08-01T05:32:10;5.55;;;3.42;;
71395;SDS011;59888;55.814;37.132;2023-08-01T05:34:37;4.47;;;3.28;;
71395;SDS011;59888;55.814;37.132;2023-08-01T05:37:03;4.88;;;3.08;;
71395;SDS011;59888;55.814;37.132;2023-08-01T05:39:29;5.03;;;3.20;;
71395;SDS011;59888;55.814;37.132;2023-08-01T05:41:55;7.70;;;3.17;;
71395;SDS011;59888;55.814;37.132;2023-08-01T05:44:21;4.60;;;2.58;;
71395;SDS011;59888;55.814;37.132;2023-08-01T05:46:48;4.95;;;2.90;;
71395;SDS011;59888;55.814;37.132;2023-08-01T05:49:14;4.47;;;2.33;;
71395;SDS011;59888;55.814;37.132;2023-08-01T05:51:40;5.18;;;2.10;;
71395;SDS011;59888;55.814;37.132;2023-08-01T05:54:07;5.72;;;2.53;;
71395;SDS011;59888;55.814;37.132;2023-08-01T05:56:33;4.47;;;2.80;;
71395;SDS011;59888;55.814;37.132;2023-08-01T05:58:59;4.22;;;2.58;;
71395;SDS011;59888;55.814;37.132;2023-08-01T06:01:25;3.83;;;2.35;;
71395;SDS011;59888;55.814;37.132;2023-08-01T06:03:51;3.08;;;2.17;;
71395;SDS011;59888;55.814;37.132;2023-08-01T06:06:18;3.45;;;2.55;;
71395;SDS011;59888;55.814;37.132;2023-08-01T06:08:44;3.75;;;2.55;;
71395;SDS011;59888;55.814;37.132;2023-08-01T06:11:10;4.93;;;2.78;;
71395;SDS011;59888;55.814;37.132;2023-08-01T06:13:36;3.75;;;2.47;;
71395;SDS011;59888;55.814;37.132;2023-08-01T06:16:02;5.35;;;2.30;;
71395;SDS011;59888;55.814;37.132;2023-08-01T06:18:30;3.28;;;2.22;;
71395;SDS011;59888;55.814;37.132;2023-08-01T06:20:55;5.38;;;2.38;;
71395;SDS011;59888;55.814;37.132;2023-08-01T06:23:23;3.28;;;2.10;;
71395;SDS011;59888;55.814;37.132;2023-08-01T06:25:50;3.60;;;2.35;;
71395;SDS011;59888;55.814;37.132;2023-08-01T06:28:18;4.13;;;2.17;;
71395;SDS011;59888;55.814;37.132;2023-08-01T06:30:45;5.53;;;2.53;;
71395;SDS011;59888;55.814;37.132;2023-08-01T06:33:11;5.43;;;2.35;;
71395;SDS011;59888;55.814;37.132;2023-08-01T06:35:37;3.67;;;1.73;;
71395;SDS011;59888;55.814;37.132;2023-08-01T06:38:03;3.92;;;1.92;;
71395;SDS011;59888;55.814;37.132;2023-08-01T06:40:29;4.38;;;2.47;;
71395;SDS011;59888;55.814;37.132;2023-08-01T06:42:55;4.18;;;2.40;;
71395;SDS011;59888;55.814;37.132;2023-08-01T06:45:21;3.63;;;2.35;;
71395;SDS011;59888;55.814;37.132;2023-08-01T06:47:47;4.30;;;2.40;;
71395;SDS011;59888;55.814;37.132;2023-08-01T06:50:13;4.45;;;2.63;;
71395;SDS011;59888;55.814;37.132;2023-08-01T06:52:39;3.53;;;2.50;;
71395;SDS011;59888;55.814;37.132;2023-08-01T06:55:05;3.33;;;2.28;;
71395;SDS011;59888;55.814;37.132;2023-08-01T06:57:31;2.80;;;2.00;;
71395;SDS011;59888;55.814;37.132;2023-08-01T06:59:57;4.13;;;2.25;;
71395;SDS011;59888;55.814;37.132;2023-08-01T07:02:23;3.72;;;2.00;;
71395;SDS011;59888;55.814;37.132;2023-08-01T07:04:50;4.20;;;2.00;;
71395;SDS011;59888;55.814;37.132;2023-08-01T07:07:21;3.35;;;1.95;;
71395;SDS011;59888;55.814;37.132;2023-08-01T07:09:47;5.25;;;2.78;;
71395;SDS011;59888;55.814;37.132;2023-08-01T07:12:13;3.53;;;2.25;;
71395;SDS011;59888;55.814;37.132;2023-08-01T07:14:41;4.50;;;2.20;;
71395;SDS011;59888;55.814;37.132;2023-08-01T07:17:07;4.78;;;2.50;;
71395;SDS011;59888;55.814;37.132;2023-08-01T07:19:33;8.27;;;2.38;;
71395;SDS011;59888;55.814;37.132;2023-08-01T07:22:01;3.28;;;2.15;;
71395;SDS011;59888;55.814;37.132;2023-08-01T07:24:28;4.45;;;2.28;;
71395;SDS011;59888;55.814;37.132;2023-08-01T07:26:54;4.03;;;1.92;;
71395;SDS011;59888;55.814;37.132;2023-08-01T07:29:20;5.57;;;2.50;;
71395;SDS011;59888;55.814;37.132;2023-08-01T07:31:46;4.22;;;2.20;;
71395;SDS011;59888;55.814;37.132;2023-08-01T07:34:12;3.92;;;1.90;;
71395;SDS011;59888;55.814;37.132;2023-08-01T07:36:38;3.97;;;2.20;;
71395;SDS011;59888;55.814;37.132;2023-08-01T07:39:04;3.80;;;1.80;;
71395;SDS011;59888;55.814;37.132;2023-08-01T07:41:30;3.50;;;2.00;;
71395;SDS011;59888;55.814;37.132;2023-08-01T07:43:58;3.00;;;2.25;;
71395;SDS011;59888;55.814;37.132;2023-08-01T07:46:26;3.22;;;2.00;;
71395;SDS011;59888;55.814;37.132;2023-08-01T07:48:52;4.28;;;2.20;;
71395;SDS011;59888;55.814;37.132;2023-08-01T07:51:19;3.42;;;2.20;;
71395;SDS011;59888;55.814;37.132;2023-08-01T07:53:45;3.45;;;1.92;;
71395;SDS011;59888;55.814;37.132;2023-08-01T07:56:13;3.00;;;2.15;;
71395;SDS011;59888;55.814;37.132;2023-08-01T07:58:39;4.75;;;2.30;;
71395;SDS011;59888;55.814;37.132;2023-08-01T08:01:06;3.22;;;2.50;;
71395;SDS011;59888;55.814;37.132;2023-08-01T08:03:32;5.93;;;2.35;;
71395;SDS011;59888;55.814;37.132;2023-08-01T08:05:58;5.35;;;2.42;;
71395;SDS011;59888;55.814;37.132;2023-08-01T08:08:24;5.55;;;2.58;;
71395;SDS011;59888;55.814;37.132;2023-08-01T08:10:50;3.88;;;2.38;;
71395;SDS011;59888;55.814;37.132;2023-08-01T08:13:16;3.95;;;2.30;;
71395;SDS011;59888;55.814;37.132;2023-08-01T08:15:43;5.65;;;2.35;;
71395;SDS011;59888;55.814;37.132;2023-08-01T08:18:09;4.75;;;2.40;;
71395;SDS011;59888;55.814;37.132;2023-08-01T08:20:40;4.78;;;2.60;;
71395;SDS011;59888;55.814;37.132;2023-08-01T08:23:08;6.10;;;2.25;;
71395;SDS011;59888;55.814;37.132;2023-08-01T08:25:35;3.33;;;2.40;;
71395;SDS011;59888;55.814;37.132;2023-08-01T08:28:00;3.05;;;2.42;;
71395;SDS011;59888;55.814;37.132;2023-08-01T08:30:27;4.55;;;2.10;;
71395;SDS011;59888;55.814;37.132;2023-08-01T08:32:52;4.15;;;2.55;;
71395;SDS011;59888;55.814;37.132;2023-08-01T08:35:18;3.47;;;2.60;;
71395;SDS011;59888;55.814;37.132;2023-08-01T08:37:44;4.53;;;2.60;;
71395;SDS011;59888;55.814;37.132;2023-08-01T08:40:12;4.15;;;2.35;;
71395;SDS011;59888;55.814;37.132;2023-08-01T08:42:38;4.55;;;2.60;;
71395;SDS011;59888;55.814;37.132;2023-08-01T08:45:06;3.28;;;2.30;;
71395;SDS011;59888;55.814;37.132;2023-08-01T08:47:35;3.42;;;2.30;;
71395;SDS011;59888;55.814;37.132;2023-08-01T08:50:03;4.50;;;2.72;;
71395;SDS011;59888;55.814;37.132;2023-08-01T08:52:31;4.55;;;2.88;;
71395;SDS011;59888;55.814;37.132;2023-08-01T08:54:57;7.93;;;2.55;;
71395;SDS011;59888;55.814;37.132;2023-08-01T08:57:23;4.85;;;2.30;;
71395;SDS011;59888;55.814;37.132;2023-08-01T08:59:50;4.70;;;2.42;;
71395;SDS011;59888;55.814;37.132;2023-08-01T09:02:18;3.83;;;2.20;;
71395;SDS011;59888;55.814;37.132;2023-08-01T09:04:45;4.10;;;2.35;;
71395;SDS011;59888;55.814;37.132;2023-08-01T09:07:11;4.10;;;2.55;;
71395;SDS011;59888;55.814;37.132;2023-08-01T09:09:41;4.45;;;2.60;;
71395;SDS011;59888;55.814;37.132;2023-08-01T09:12:07;6.18;;;2.45;;
71395;SDS011;59888;55.814;37.132;2023-08-01T09:14:35;12.45;;;5.22;;
71395;SDS011;59888;55.814;37.132;2023-08-01T09:17:07;3.45;;;2.47;;
71395;SDS011;59888;55.814;37.132;2023-08-01T09:19:34;3.97;;;2.30;;
71395;SDS011;59888;55.814;37.132;2023-08-01T09:22:01;5.60;;;2.80;;
71395;SDS011;59888;55.814;37.132;2023-08-01T09:24:28;3.40;;;2.15;;
71395;SDS011;59888;55.814;37.132;2023-08-01T09:27:01;3.40;;;2.20;;
71395;SDS011;59888;55.814;37.132;2023-08-01T09:29:30;3.42;;;2.50;;
71395;SDS011;59888;55.814;37.132;2023-08-01T09:31:58;3.95;;;2.50;;
71395;SDS011;59888;55.814;37.132;2023-08-01T09:34:26;4.28;;;2.55;;
71395;SDS011;59888;55.814;37.132;2023-08-01T09:36:59;4.80;;;2.40;;
71395;SDS011;59888;55.814;37.132;2023-08-01T09:39:26;6.40;;;2.30;;
71395;SDS011;59888;55.814;37.132;2023-08-01T09:41:56;3.63;;;2.40;;
71395;SDS011;59888;55.814;37.132;2023-08-01T09:44:27;3.63;;;2.45;;
71395;SDS011;59888;55.814;37.132;2023-08-01T09:47:00;3.05;;;2.47;;
71395;SDS011;59888;55.814;37.132;2023-08-01T09:49:28;4.28;;;2.38;;
71395;SDS011;59888;55.814;37.132;2023-08-01T09:51:55;3.15;;;2.22;;
71395;SDS011;59888;55.814;37.132;2023-08-01T09:54:23;4.45;;;2.40;;
71395;SDS011;59888;55.814;37.132;2023-08-01T09:56:50;2.97;;;2.22;;
71395;SDS011;59888;55.814;37.132;2023-08-01T09:59:20;3.30;;;2.20;;
71395;SDS011;59888;55.814;37.132;2023-08-01T10:01:48;3.78;;;2.38;;
71395;SDS011;59888;55.814;37.132;2023-08-01T10:04:18;5.93;;;2.47;;
71395;SDS011;59888;55.814;37.132;2023-08-01T10:06:49;3.80;;;2.42;;
71395;SDS011;59888;55.814;37.132;2023-08-01T10:09:19;3.88;;;2.15;;
71395;SDS011;59888;55.814;37.132;2023-08-01T10:11:47;3.75;;;2.20;;
71395;SDS011;59888;55.814;37.132;2023-08-01T10:14:14;3.28;;;2.10;;
71395;SDS011;59888;55.814;37.132;2023-08-01T10:16:42;3.08;;;2.17;;
71395;SDS011;59888;55.814;37.132;2023-08-01T10:19:08;3.33;;;2.30;;
71395;SDS011;59888;55.814;37.132;2023-08-01T10:21:37;4.10;;;2.40;;
71395;SDS011;59888;55.814;37.132;2023-08-01T10:24:03;3.78;;;2.33;;
71395;SDS011;59888;55.814;37.132;2023-08-01T10:26:31;4.35;;;2.30;;
71395;SDS011;59888;55.814;37.132;2023-08-01T10:28:57;3.00;;;2.50;;
71395;SDS011;59888;55.814;37.132;2023-08-01T10:31:25;2.97;;;2.35;;
71395;SDS011;59888;55.814;37.132;2023-08-01T10:33:51;4.43;;;2.67;;
71395;SDS011;59888;55.814;37.132;2023-08-01T10:36:22;4.60;;;2.90;;
71395;SDS011;59888;55.814;37.132;2023-08-01T10:38:56;3.60;;;2.35;;
71395;SDS011;59888;55.814;37.132;2023-08-01T10:41:26;4.53;;;2.22;;
71395;SDS011;59888;55.814;37.132;2023-08-01T10:44:07;6.43;;;3.00;;
71395;SDS011;59888;55.814;37.132;2023-08-01T10:49:19;4.85;;;2.92;;
71395;SDS011;59888;55.814;37.132;2023-08-01T10:51:57;3.58;;;2.63;;
71395;SDS011;59888;55.814;37.132;2023-08-01T10:54:24;4.18;;;2.25;;
71395;SDS011;59888;55.814;37.132;2023-08-01T10:56:52;6.05;;;2.47;;
71395;SDS011;59888;55.814;37.132;2023-08-01T10:59:19;3.22;;;2.40;;
71395;SDS011;59888;55.814;37.132;2023-08-01T11:01:51;4.10;;;2.40;;
71395;SDS011;59888;55.814;37.132;2023-08-01T11:04:21;6.18;;;2.95;;
71395;SDS011;59888;55.814;37.132;2023-08-01T11:06:49;5.15;;;3.00;;
71395;SDS011;59888;55.814;37.132;2023-08-01T11:09:18;3.75;;;2.80;;
71395;SDS011;59888;55.814;37.132;2023-08-01T11:11:50;6.95;;;3.17;;
71395;SDS011;59888;55.814;37.132;2023-08-01T11:14:20;4.82;;;2.80;;
71395;SDS011;59888;55.814;37.132;2023-08-01T11:16:48;4.47;;;2.80;;
71395;SDS011;59888;55.814;37.132;2023-08-01T11:19:28;5.50;;;3.40;;
71395;SDS011;59888;55.814;37.132;2023-08-01T11:21:56;4.57;;;2.92;;
71395;SDS011;59888;55.814;37.132;2023-08-01T11:24:24;3.50;;;2.65;;
71395;SDS011;59888;55.814;37.132;2023-08-01T11:26:51;5.38;;;3.15;;
71395;SDS011;59888;55.814;37.132;2023-08-01T11:29:19;4.43;;;2.60;;
71395;SDS011;59888;55.814;37.132;2023-08-01T11:34:19;6.65;;;2.78;;
71395;SDS011;59888;55.814;37.132;2023-08-01T11:36:45;4.32;;;2.63;;
71395;SDS011;59888;55.814;37.132;2023-08-01T11:39:12;7.20;;;2.92;;
71395;SDS011;59888;55.814;37.132;2023-08-01T11:41:39;10.35;;;3.67;;
71395;SDS011;59888;55.814;37.132;2023-08-01T11:44:05;6.22;;;3.33;;
71395;SDS011;59888;55.814;37.132;2023-08-01T11:46:32;5.60;;;3.13;;
71395;SDS011;59888;55.814;37.132;2023-08-01T11:49:01;7.82;;;2.70;;
71395;SDS011;59888;55.814;37.132;2023-08-01T11:51:28;6.15;;;2.85;;
71395;SDS011;59888;55.814;37.132;2023-08-01T11:53:58;6.10;;;3.03;;
71395;SDS011;59888;55.814;37.132;2023-08-01T11:56:29;9.10;;;3.25;;
71395;SDS011;59888;55.814;37.132;2023-08-01T11:58:55;10.05;;;3.30;;
71395;SDS011;59888;55.814;37.132;2023-08-01T12:01:23;7.93;;;3.08;;
71395;SDS011;59888;55.814;37.132;2023-08-01T12:03:53;5.22;;;2.80;;
71395;SDS011;59888;55.814;37.132;2023-08-01T12:06:20;8.32;;;3.08;;
71395;SDS011;59888;55.814;37.132;2023-08-01T12:08:49;7.00;;;3.00;;
71395;SDS011;59888;55.814;37.132;2023-08-01T12:11:27;4.32;;;2.55;;
71395;SDS011;59888;55.814;37.132;2023-08-01T12:14:12;6.97;;;3.13;;
71395;SDS011;59888;55.814;37.132;2023-08-01T12:16:40;4.43;;;2.60;;
71395;SDS011;59888;55.814;37.132;2023-08-01T12:19:19;5.38;;;2.00;;
71395;SDS011;59888;55.814;37.132;2023-08-01T12:21:48;5.45;;;2.30;;
71395;SDS011;59888;55.814;37.132;2023-08-01T12:24:14;3.47;;;2.20;;
71395;SDS011;59888;55.814;37.132;2023-08-01T12:26:40;3.63;;;2.33;;
71395;SDS011;59888;55.814;37.132;2023-08-01T12:29:06;4.03;;;2.58;;
71395;SDS011;59888;55.814;37.132;2023-08-01T12:31:33;5.57;;;2.20;;
71395;SDS011;59888;55.814;37.132;2023-08-01T12:33:59;5.13;;;2.53;;
71395;SDS011;59888;55.814;37.132;2023-08-01T12:36:25;4.13;;;2.25;;
71395;SDS011;59888;55.814;37.132;2023-08-01T12:38:52;3.60;;;2.40;;
71395;SDS011;59888;55.814;37.132;2023-08-01T12:41:18;3.38;;;2.40;;
71395;SDS011;59888;55.814;37.132;2023-08-01T12:43:44;4.38;;;2.40;;
71395;SDS011;59888;55.814;37.132;2023-08-01T12:46:10;4.07;;;2.47;;
71395;SDS011;59888;55.814;37.132;2023-08-01T12:48:36;5.60;;;2.30;;
71395;SDS011;59888;55.814;37.132;2023-08-01T12:51:02;3.83;;;2.40;;
71395;SDS011;59888;55.814;37.132;2023-08-01T12:53:28;4.68;;;2.60;;
71395;SDS011;59888;55.814;37.132;2023-08-01T12:56:00;4.40;;;2.60;;
71395;SDS011;59888;55.814;37.132;2023-08-01T12:58:26;4.25;;;2.40;;
71395;SDS011;59888;55.814;37.132;2023-08-01T13:00:53;5.07;;;2.65;;
71395;SDS011;59888;55.814;37.132;2023-08-01T13:03:21;3.40;;;2.28;;
71395;SDS011;59888;55.814;37.132;2023-08-01T13:05:47;2.72;;;2.03;;
71395;SDS011;59888;55.814;37.132;2023-08-01T13:08:13;4.18;;;2.30;;
71395;SDS011;59888;55.814;37.132;2023-08-01T13:10:40;4.53;;;2.20;;
71395;SDS011;59888;55.814;37.132;2023-08-01T13:13:07;4.00;;;2.30;;
71395;SDS011;59888;55.814;37.132;2023-08-01T13:15:33;5.97;;;2.33;;
71395;SDS011;59888;55.814;37.132;2023-08-01T13:17:59;3.10;;;2.20;;
71395;SDS011;59888;55.814;37.132;2023-08-01T13:20:26;2.85;;;2.08;;
71395;SDS011;59888;55.814;37.132;2023-08-01T13:22:52;4.82;;;2.30;;
71395;SDS011;59888;55.814;37.132;2023-08-01T13:25:18;2.85;;;2.20;;
71395;SDS011;59888;55.814;37.132;2023-08-01T13:27:46;5.28;;;2.30;;
71395;SDS011;59888;55.814;37.132;2023-08-01T13:30:12;4.85;;;2.13;;
71395;SDS011;59888;55.814;37.132;2023-08-01T13:32:44;2.60;;;1.63;;
71395;SDS011;59888;55.814;37.132;2023-08-01T13:35:13;3.38;;;2.03;;
71395;SDS011;59888;55.814;37.132;2023-08-01T13:37:39;3.90;;;2.05;;
71395;SDS011;59888;55.814;37.132;2023-08-01T13:40:06;2.75;;;2.20;;
71395;SDS011;59888;55.814;37.132;2023-08-01T13:42:32;2.80;;;2.20;;
71395;SDS011;59888;55.814;37.132;2023-08-01T13:44:58;2.78;;;1.88;;
71395;SDS011;59888;55.814;37.132;2023-08-01T13:47:25;2.63;;;1.70;;
71395;SDS011;59888;55.814;37.132;2023-08-01T13:49:52;2.28;;;1.67;;
71395;SDS011;59888;55.814;37.132;2023-08-01T13:52:19;3.90;;;1.95;;
71395;SDS011;59888;55.814;37.132;2023-08-01T13:54:45;3.22;;;2.13;;
71395;SDS011;59888;55.814;37.132;2023-08-01T13:57:11;6.60;;;1.90;;
71395;SDS011;59888;55.814;37.132;2023-08-01T13:59:38;3.50;;;2.00;;
71395;SDS011;59888;55.814;37.132;2023-08-01T14:02:04;2.40;;;1.80;;
71395;SDS011;59888;55.814;37.132;2023-08-01T14:04:31;4.10;;;2.28;;
71395;SDS011;59888;55.814;37.132;2023-08-01T14:06:57;3.65;;;1.98;;
71395;SDS011;59888;55.814;37.132;2023-08-01T14:09:23;4.18;;;2.40;;
71395;SDS011;59888;55.814;37.132;2023-08-01T14:11:50;2.25;;;2.00;;
71395;SDS011;59888;55.814;37.132;2023-08-01T14:14:16;4.10;;;2.20;;
71395;SDS011;59888;55.814;37.132;2023-08-01T14:16:42;4.97;;;2.17;;
71395;SDS011;59888;55.814;37.132;2023-08-01T14:19:08;3.30;;;1.83;;
71395;SDS011;59888;55.814;37.132;2023-08-01T14:21:34;3.28;;;1.90;;
71395;SDS011;59888;55.814;37.132;2023-08-01T14:24:01;3.58;;;2.13;;
71395;SDS011;59888;55.814;37.132;2023-08-01T14:26:27;6.18;;;1.92;;
71395;SDS011;59888;55.814;37.132;2023-08-01T14:28:53;4.05;;;2.17;;
71395;SDS011;59888;55.814;37.132;2023-08-01T14:31:19;3.58;;;2.20;;
71395;SDS011;59888;55.814;37.132;2023-08-01T14:33:45;3.75;;;2.10;;
71395;SDS011;59888;55.814;37.132;2023-08-01T14:36:12;3.22;;;1.85;;
71395;SDS011;59888;55.814;37.132;2023-08-01T14:38:39;2.42;;;1.90;;
71395;SDS011;59888;55.814;37.132;2023-08-01T14:41:05;3.63;;;2.13;;
71395;SDS011;59888;55.814;37.132;2023-08-01T14:43:31;4.28;;;1.80;;